KLNK/LNK METAR and TAF weather

Enter ICAO airport designator
Station Type Date Time Source
KLNK METAR 2021/09/23 16:54 UTC NOAA

KLNK 231654Z 18014G19KT 10SM CLR 24/06 A3005 RMK AO2 SLP168 T02440056


Station Type Date Time Source
KLNK Decoded METAR 2021/09/23 16:54 UTC NOAA

LINCOLN MUNICIPAL AIRPORT, NE, United States (KLNK) 40-50N 96-46W 364M
Sep 23, 2021 - 12:54 PM EDT / 2021.09.23 1654 UTC
Wind: from the S (180 degrees) at 16 MPH (14 KT) gusting to 22 MPH (19 KT):0
Visibility: 10 mile(s):0
Sky conditions: clear
Temperature: 75.9 F (24.4 C)
Dew Point: 42.1 F (5.6 C)
Relative Humidity: 29%
Pressure (altimeter): 30.05 in. Hg (1017 hPa)
ob: KLNK 231654Z 18014G19KT 10SM CLR 24/06 A3005 RMK AO2 SLP168 T02440056
cycle: 17

Station Type Date Time Source
KLNK TAF 2021/09/23 18:22 UTC NOAA

TAF KLNK 231720Z 2318/2418 18014G21KT P6SM SKC
FM240000 17006KT P6SM SKC
FM240500 18007KT P6SM FEW250 WS020/21035KT
FM241000 20006KT P6SM SCT250
FM241500 34013KT P6SM BKN200

Example: see airport list